createdAt,value
2019-05-16T00:00:28.687Z,2.80
2019-05-16T00:02:59.024Z,2.50
2019-05-16T00:05:30.079Z,2.23
2019-05-16T00:08:01.111Z,2.77
2019-05-16T00:10:32.325Z,2.63
2019-05-16T00:13:03.317Z,2.97
2019-05-16T00:15:34.298Z,2.87
2019-05-16T00:18:05.307Z,2.90
2019-05-16T00:20:38.611Z,2.70
2019-05-16T00:23:09.397Z,2.83
2019-05-16T00:25:40.426Z,2.80
2019-05-16T00:28:11.407Z,3.20
2019-05-16T00:30:42.444Z,2.80
2019-05-16T00:33:13.388Z,2.73
2019-05-16T00:35:44.486Z,2.60
2019-05-16T00:38:15.881Z,2.80
2019-05-16T00:40:48.601Z,2.43
2019-05-16T00:43:19.543Z,2.50
2019-05-16T00:45:50.774Z,2.60
2019-05-16T00:48:21.706Z,2.40
2019-05-16T00:50:52.784Z,2.63
2019-05-16T00:53:23.976Z,2.77
2019-05-16T00:55:58.374Z,2.60
2019-05-16T00:58:30.270Z,2.87
2019-05-16T01:01:01.217Z,2.47
2019-05-16T01:03:32.524Z,3.00
2019-05-16T01:06:15.791Z,2.73
2019-05-16T01:08:38.539Z,3.10
2019-05-16T01:11:09.636Z,2.80
2019-05-16T01:13:40.787Z,2.80
2019-05-16T01:16:11.719Z,2.47
2019-05-16T01:18:42.679Z,2.83
2019-05-16T01:21:13.702Z,2.97
2019-05-16T01:23:45.608Z,3.10
2019-05-16T01:26:18.499Z,2.73
2019-05-16T01:28:49.660Z,3.07
2019-05-16T01:31:20.591Z,2.87
2019-05-16T01:33:51.515Z,2.93
2019-05-16T01:36:35.999Z,3.13
2019-05-16T01:38:55.206Z,2.77
2019-05-16T01:41:28.513Z,2.83
2019-05-16T01:44:01.957Z,3.00
2019-05-16T01:46:33.051Z,3.00
2019-05-16T01:49:04.346Z,3.07
2019-05-16T01:51:35.301Z,2.97
2019-05-16T01:54:08.522Z,3.27
2019-05-16T01:56:38.990Z,3.50
2019-05-16T01:59:10.392Z,3.20
2019-05-16T02:01:41.430Z,3.37
2019-05-16T02:04:12.716Z,3.47
2019-05-16T02:06:51.791Z,3.10
2019-05-16T02:09:18.927Z,2.97
2019-05-16T02:11:50.437Z,3.00
2019-05-16T02:14:21.751Z,3.10
2019-05-16T02:16:52.737Z,3.20
2019-05-16T02:19:23.761Z,3.10
2019-05-16T02:21:55.151Z,3.33
2019-05-16T02:24:38.787Z,3.00
2019-05-16T02:27:09.537Z,3.30
2019-05-16T02:29:47.521Z,3.40
2019-05-16T02:32:15.161Z,3.00
2019-05-16T02:34:46.660Z,2.97
2019-05-16T02:37:25.944Z,3.70
2019-05-16T02:39:51.573Z,3.40
2019-05-16T02:42:23.128Z,3.47
2019-05-16T02:44:54.126Z,3.67
2019-05-16T02:47:25.440Z,3.70
2019-05-16T02:49:56.944Z,3.60
2019-05-16T02:52:28.040Z,3.47
2019-05-16T02:55:00.994Z,3.40
2019-05-16T02:57:43.738Z,3.53
2019-05-16T03:00:15.117Z,3.27
2019-05-16T03:02:46.245Z,3.90
2019-05-16T03:05:20.583Z,3.50
2019-05-16T03:07:52.138Z,3.40
2019-05-16T03:10:23.135Z,3.77
2019-05-16T03:12:56.860Z,3.20
2019-05-16T03:15:30.915Z,3.67
2019-05-16T03:18:04.254Z,3.47
2019-05-16T03:20:35.259Z,3.77
2019-05-16T03:23:06.486Z,3.57
2019-05-16T03:25:37.562Z,3.80
2019-05-16T03:28:11.167Z,3.60
2019-05-16T03:30:44.845Z,3.93
2019-05-16T03:33:23.428Z,3.90
2019-05-16T03:35:46.993Z,4.33
2019-05-16T03:38:21.221Z,4.13
2019-05-16T03:40:51.463Z,3.87
2019-05-16T03:43:22.397Z,4.20
2019-05-16T03:45:54.912Z,4.00
2019-05-16T03:48:25.865Z,4.10
2019-05-16T03:50:56.916Z,4.17
2019-05-16T03:53:31.450Z,4.17
2019-05-16T03:56:01.752Z,3.93
2019-05-16T03:58:33.177Z,4.00
2019-05-16T04:01:04.202Z,4.10
2019-05-16T04:03:35.640Z,3.97
2019-05-16T04:06:06.649Z,4.20
2019-05-16T04:08:37.663Z,3.90
2019-05-16T04:11:11.580Z,4.23
2019-05-16T04:13:41.726Z,4.57
2019-05-16T04:16:12.805Z,4.57
2019-05-16T04:18:43.846Z,4.43
2019-05-16T04:21:17.586Z,4.40
2019-05-16T04:23:50.376Z,4.63
2019-05-16T04:26:21.800Z,4.37
2019-05-16T04:28:53.133Z,4.60
2019-05-16T04:31:24.891Z,4.73
2019-05-16T04:33:55.901Z,4.67
2019-05-16T04:36:26.975Z,4.70
2019-05-16T04:38:57.996Z,4.73
2019-05-16T04:41:31.327Z,4.60
2019-05-16T04:44:04.825Z,4.60
2019-05-16T04:46:34.314Z,4.87
2019-05-16T04:49:05.762Z,4.90
2019-05-16T04:51:37.089Z,4.43
2019-05-16T04:54:11.367Z,4.63
2019-05-16T04:56:41.669Z,4.53
2019-05-16T04:59:16.505Z,4.80
2019-05-16T05:01:45.855Z,5.00
2019-05-16T05:04:16.820Z,4.53
2019-05-16T05:06:51.276Z,4.77
2019-05-16T05:09:23.371Z,5.10
2019-05-16T05:11:54.772Z,4.77
2019-05-16T05:14:26.040Z,4.90
2019-05-16T05:16:57.008Z,5.07
2019-05-16T05:19:30.502Z,5.40
2019-05-16T05:22:01.310Z,5.33
2019-05-16T05:24:32.504Z,5.80
2019-05-16T05:27:03.498Z,5.30
2019-05-16T05:29:34.590Z,5.70
2019-05-16T05:32:05.688Z,4.93
2019-05-16T05:34:37.068Z,5.20
2019-05-16T05:37:12.517Z,4.90
2019-05-16T05:39:41.683Z,5.13
2019-05-16T05:42:13.073Z,4.90
2019-05-16T05:44:45.008Z,5.30
2019-05-16T05:47:16.003Z,5.50
2019-05-16T05:49:46.940Z,5.83
2019-05-16T05:52:20.612Z,4.67
2019-05-16T05:54:50.974Z,4.63
2019-05-16T05:57:21.973Z,5.47
2019-05-16T05:59:53.350Z,5.17
2019-05-16T06:02:24.509Z,5.57
2019-05-16T06:04:56.201Z,5.10
2019-05-16T06:07:27.219Z,5.40
2019-05-16T06:10:00.430Z,5.30
2019-05-16T06:12:31.294Z,5.10
2019-05-16T06:15:08.310Z,5.40
2019-05-16T06:17:35.075Z,5.87
2019-05-16T06:20:06.806Z,5.53
2019-05-16T06:22:40.153Z,5.40
2019-05-16T06:25:13.515Z,5.93
2019-05-16T06:27:43.756Z,5.43
2019-05-16T06:30:14.806Z,5.47
2019-05-16T06:32:46.589Z,5.67
2019-05-16T06:35:20.108Z,5.47
2019-05-16T06:37:50.723Z,6.33
2019-05-16T06:40:22.047Z,5.40
2019-05-16T06:42:52.971Z,5.70
2019-05-16T06:45:23.961Z,5.23
2019-05-16T06:47:54.926Z,5.40
2019-05-16T06:50:25.918Z,5.43
2019-05-16T06:52:56.872Z,5.67
2019-05-16T06:55:29.614Z,5.53
2019-05-16T06:58:01.740Z,5.77
2019-05-16T07:00:32.950Z,5.20
2019-05-16T07:03:04.266Z,5.07
2019-05-16T07:05:35.206Z,6.10
2019-05-16T07:08:06.238Z,5.93
2019-05-16T07:10:37.234Z,4.73
2019-05-16T07:13:10.305Z,5.40
2019-05-16T07:15:40.963Z,5.87
2019-05-16T07:18:13.205Z,5.73
2019-05-16T07:20:44.724Z,5.40
2019-05-16T07:23:15.976Z,5.23
2019-05-16T07:25:46.940Z,5.80
2019-05-16T07:28:20.538Z,5.50
2019-05-16T07:30:50.951Z,5.70
2019-05-16T07:33:21.969Z,5.63
2019-05-16T07:35:53.264Z,5.47
2019-05-16T07:38:24.203Z,5.83
2019-05-16T07:40:55.130Z,5.27
2019-05-16T07:43:26.367Z,5.50
2019-05-16T07:45:57.438Z,5.10
2019-05-16T07:48:31.244Z,5.33
2019-05-16T07:51:01.752Z,4.77
2019-05-16T07:53:50.843Z,5.60
2019-05-16T07:56:40.684Z,4.50
2019-05-16T07:59:30.404Z,4.97
2019-05-16T08:02:20.821Z,5.43
2019-05-16T08:04:52.317Z,5.37
2019-05-16T08:07:23.495Z,5.60
2019-05-16T08:09:55.635Z,5.30
2019-05-16T08:12:27.087Z,5.27
2019-05-16T08:15:00.766Z,4.87
2019-05-16T08:17:31.987Z,4.60
2019-05-16T08:20:03.059Z,4.67
2019-05-16T08:22:34.073Z,4.97
2019-05-16T08:25:05.392Z,4.50
2019-05-16T08:27:36.401Z,4.93
2019-05-16T08:30:07.445Z,4.73
2019-05-16T08:32:42.060Z,5.23
2019-05-16T08:35:12.905Z,5.20
2019-05-16T08:37:47.069Z,4.93
2019-05-16T08:40:21.311Z,4.40
2019-05-16T08:45:23.618Z,4.30
2019-05-16T08:47:54.979Z,3.63
2019-05-16T08:50:26.164Z,3.40
2019-05-16T08:52:57.092Z,3.60
2019-05-16T08:55:31.390Z,3.27
2019-05-16T08:58:02.850Z,3.73
2019-05-16T09:00:33.978Z,3.60
2019-05-16T09:03:05.095Z,3.83
2019-05-16T09:05:36.344Z,3.80
2019-05-16T09:08:07.326Z,3.40
2019-05-16T09:10:29.684Z,3.73
2019-05-16T09:10:55.709Z,3.43
2019-05-16T09:13:10.969Z,3.50
2019-05-16T09:15:41.918Z,2.93
2019-05-16T09:18:12.919Z,3.77
2019-05-16T09:20:43.830Z,3.20
2019-05-16T09:23:17.608Z,2.77
2019-05-16T09:25:48.722Z,3.07
2019-05-16T09:28:20.797Z,3.57
2019-05-16T09:30:51.713Z,3.83
2019-05-16T09:33:22.762Z,3.53
2019-05-16T09:35:56.929Z,3.73
2019-05-16T09:38:28.447Z,3.90
2019-05-16T09:40:59.550Z,4.50
2019-05-16T09:43:30.623Z,4.30
2019-05-16T09:46:03.972Z,4.37
2019-05-16T09:48:37.722Z,5.17
2019-05-16T09:51:07.134Z,4.70
2019-05-16T09:53:38.155Z,4.80
2019-05-16T09:56:09.078Z,4.53
2019-05-16T09:58:39.996Z,4.60
2019-05-16T10:01:11.069Z,4.53
2019-05-16T10:03:43.393Z,5.30
2019-05-16T10:06:18.706Z,4.97
2019-05-16T10:08:47.626Z,5.00
2019-05-16T10:11:21.622Z,5.00
2019-05-16T10:13:52.583Z,6.27
2019-05-16T10:16:23.967Z,5.57
2019-05-16T10:18:56.778Z,5.80
2019-05-16T10:21:27.815Z,6.23
2019-05-16T10:23:59.045Z,6.13
2019-05-16T10:26:31.134Z,5.50
2019-05-16T10:29:02.057Z,5.30
2019-05-16T10:31:44.809Z,5.77
2019-05-16T10:34:07.603Z,5.67
2019-05-16T10:36:39.835Z,6.20
2019-05-16T10:39:10.743Z,5.97
2019-05-16T10:41:41.741Z,6.50
2019-05-16T10:44:12.810Z,5.47
2019-05-16T10:46:43.824Z,5.10
2019-05-16T10:49:16.612Z,4.67
2019-05-16T10:51:48.118Z,4.40
2019-05-16T10:54:19.291Z,4.30
2019-05-16T10:56:51.013Z,4.20
2019-05-16T10:59:54.415Z,5.00
2019-05-16T11:01:56.811Z,5.00
2019-05-16T11:04:42.124Z,4.67
2019-05-16T11:07:01.793Z,3.93
2019-05-16T11:09:33.706Z,4.03
2019-05-16T11:12:04.711Z,4.20
2019-05-16T11:14:37.041Z,4.37
2019-05-16T11:17:13.359Z,3.87
2019-05-16T11:19:41.070Z,4.13
2019-05-16T11:22:12.194Z,3.60
2019-05-16T11:24:44.146Z,3.60
2019-05-16T11:27:15.581Z,3.47
2019-05-16T11:29:47.315Z,3.92
2019-05-16T11:32:18.453Z,3.50
2019-05-16T11:34:49.334Z,3.47
2019-05-16T11:37:20.684Z,3.37
2019-05-16T11:39:52.443Z,3.30
2019-05-16T11:42:23.401Z,3.40
2019-05-16T11:44:54.349Z,3.70
2019-05-16T11:47:27.188Z,3.67
2019-05-16T11:49:58.266Z,3.17
2019-05-16T11:52:29.287Z,3.60
2019-05-16T11:55:00.336Z,3.20
2019-05-16T11:57:31.493Z,3.75
2019-05-16T12:00:02.833Z,3.70
2019-05-16T12:02:37.309Z,3.80
2019-05-16T12:05:06.823Z,3.53
2019-05-16T12:07:44.399Z,3.40
2019-05-16T12:10:11.943Z,3.60
2019-05-16T12:12:43.261Z,3.98
2019-05-16T12:15:17.469Z,3.33
2019-05-16T12:18:00.416Z,3.70
2019-05-16T12:20:20.180Z,3.60
2019-05-16T12:22:51.191Z,3.40
2019-05-16T12:25:22.220Z,3.67
2019-05-16T12:27:53.510Z,3.50
2019-05-16T12:30:24.995Z,4.07
2019-05-16T12:32:58.135Z,3.57
2019-05-16T12:35:29.221Z,3.63
2019-05-16T12:38:00.231Z,3.80
2019-05-16T12:40:31.583Z,3.90
2019-05-16T12:43:02.677Z,3.70
2019-05-16T12:45:33.595Z,3.57
2019-05-16T12:48:06.812Z,3.80
2019-05-16T12:50:38.769Z,3.87
2019-05-16T12:53:10.204Z,4.70
2019-05-16T12:55:41.308Z,4.20
2019-05-16T12:58:13.682Z,4.03
2019-05-16T13:00:54.023Z,4.17
2019-05-16T13:03:18.506Z,3.70
2019-05-16T13:05:49.794Z,3.70
2019-05-16T13:08:21.150Z,4.03
2019-05-16T13:10:52.186Z,3.83
2019-05-16T13:13:23.182Z,3.63
2019-05-16T13:15:54.560Z,3.30
2019-05-16T13:18:27.507Z,3.80
2019-05-16T13:20:58.623Z,3.80
2019-05-16T13:23:29.635Z,3.40
2019-05-16T13:26:00.684Z,3.57
2019-05-16T13:28:31.627Z,3.20
2019-05-16T13:31:02.662Z,3.90
2019-05-16T13:33:33.626Z,3.80
2019-05-16T13:36:07.200Z,3.90
2019-05-16T13:38:37.381Z,3.57
2019-05-16T13:41:11.717Z,3.43
2019-05-16T13:43:43.238Z,3.50
2019-05-16T13:46:14.279Z,3.53
2019-05-16T13:48:45.655Z,3.13
2019-05-16T13:51:26.569Z,3.00
2019-05-16T13:53:57.307Z,3.47
2019-05-16T13:56:28.293Z,3.30
2019-05-16T13:59:00.236Z,3.30
2019-05-16T14:01:31.355Z,3.73
2019-05-16T14:04:03.591Z,4.00
2019-05-16T14:06:36.838Z,3.43
2019-05-16T14:09:08.145Z,4.23
2019-05-16T14:11:39.153Z,3.90
2019-05-16T14:14:10.173Z,4.00
2019-05-16T14:16:46.971Z,3.90
2019-05-16T14:19:30.491Z,4.10
2019-05-16T14:22:01.494Z,3.70
2019-05-16T14:24:32.577Z,3.97
2019-05-16T14:27:03.695Z,3.73
2019-05-16T14:29:37.752Z,4.50
2019-05-16T14:32:10.321Z,3.75
2019-05-16T14:34:41.408Z,4.37
2019-05-16T14:37:12.725Z,4.20
2019-05-16T14:39:43.722Z,4.00
2019-05-16T14:42:17.884Z,4.27
2019-05-16T14:45:03.525Z,4.42
2019-05-16T14:47:20.981Z,4.57
2019-05-16T14:49:52.967Z,4.23
2019-05-16T14:52:24.046Z,4.30
2019-05-16T14:54:57.376Z,4.33
2019-05-16T14:57:27.707Z,4.43
2019-05-16T14:59:59.400Z,4.30
2019-05-16T15:02:30.684Z,4.17
2019-05-16T15:05:01.695Z,3.90
2019-05-16T15:07:32.870Z,3.83
2019-05-16T15:10:03.875Z,4.13
2019-05-16T15:12:37.303Z,4.53
2019-05-16T15:15:20.192Z,4.70
2019-05-16T15:17:47.368Z,4.57
2019-05-16T15:20:18.866Z,5.00
2019-05-16T15:22:49.930Z,4.27
2019-05-16T15:25:21.098Z,4.87
2019-05-16T15:27:52.067Z,4.60
2019-05-16T15:30:23.979Z,5.47
2019-05-16T15:32:56.932Z,5.17
2019-05-16T15:35:30.557Z,5.37
2019-05-16T15:38:01.299Z,4.90
2019-05-16T15:40:32.450Z,5.17
2019-05-16T15:43:03.486Z,5.63
2019-05-16T15:45:43.364Z,5.27
2019-05-16T15:48:17.025Z,4.73
2019-05-16T15:50:47.404Z,5.07
2019-05-16T15:53:18.427Z,4.77
2019-05-16T15:55:49.607Z,4.63
2019-05-16T15:58:20.558Z,5.20
2019-05-16T16:00:51.711Z,5.00
2019-05-16T16:03:23.022Z,5.62
2019-05-16T16:05:54.118Z,5.23
2019-05-16T16:08:28.281Z,4.50
2019-05-16T16:11:02.662Z,5.17
2019-05-16T16:13:33.870Z,5.77
2019-05-16T16:16:09.231Z,5.23
2019-05-16T16:18:37.937Z,5.00
2019-05-16T16:21:09.161Z,4.70
2019-05-16T16:23:40.124Z,4.67
2019-05-16T16:26:11.485Z,5.13
2019-05-16T16:28:43.021Z,4.87
2019-05-16T16:31:16.783Z,5.20
2019-05-16T16:33:47.995Z,5.80
2019-05-16T16:36:19.163Z,5.53
2019-05-16T16:38:50.104Z,10.37
2019-05-16T16:41:21.194Z,6.23
2019-05-16T16:43:52.213Z,5.00
2019-05-16T16:46:23.220Z,5.27
2019-05-16T16:48:56.740Z,4.87
2019-05-16T16:51:27.053Z,5.40
2019-05-16T16:53:58.345Z,4.37
2019-05-16T16:56:29.793Z,4.43
2019-05-16T16:59:00.898Z,3.98
2019-05-16T17:01:32.585Z,5.10
2019-05-16T17:04:06.574Z,4.80
2019-05-16T17:06:37.682Z,5.00
2019-05-16T17:09:08.971Z,4.80
2019-05-16T17:11:40.022Z,4.50
2019-05-16T17:14:11.445Z,5.00
2019-05-16T17:16:47.437Z,4.60
2019-05-16T17:19:18.753Z,4.53
2019-05-16T17:22:02.067Z,4.63
2019-05-16T17:24:22.397Z,5.83
2019-05-16T17:26:54.040Z,4.90
2019-05-16T17:29:27.783Z,5.47
2019-05-16T17:32:05.947Z,4.70
2019-05-16T17:34:31.743Z,4.60
2019-05-16T17:37:02.740Z,5.10
2019-05-16T17:39:33.964Z,5.00
2019-05-16T17:42:07.489Z,4.60
2019-05-16T17:44:38.072Z,5.27
2019-05-16T17:47:09.416Z,4.87
2019-05-16T17:49:40.438Z,4.93
2019-05-16T17:52:12.160Z,4.83
2019-05-16T17:54:43.208Z,4.67
2019-05-16T17:57:16.776Z,4.37
2019-05-16T17:59:47.959Z,4.53
2019-05-16T18:02:19.104Z,4.90
2019-05-16T18:04:50.128Z,4.33
2019-05-16T18:07:21.216Z,5.43
2019-05-16T18:09:52.214Z,5.00
2019-05-16T18:12:23.495Z,4.60
2019-05-16T18:14:57.018Z,3.97
2019-05-16T18:17:27.219Z,4.50
2019-05-16T18:19:58.186Z,4.90
2019-05-16T18:22:29.652Z,4.90
2019-05-16T18:25:00.749Z,4.20
2019-05-16T18:27:31.754Z,4.37
2019-05-16T18:30:02.761Z,4.90
2019-05-16T18:32:33.698Z,5.20
2019-05-16T18:35:07.078Z,5.50
2019-05-16T18:37:38.373Z,4.27
2019-05-16T18:40:10.329Z,5.03
2019-05-16T18:42:41.970Z,4.93
2019-05-16T18:45:13.134Z,5.07
2019-05-16T18:47:44.195Z,4.57
2019-05-16T18:50:18.110Z,4.70
2019-05-16T18:52:48.906Z,4.83
2019-05-16T18:55:20.051Z,4.63
2019-05-16T18:57:51.113Z,4.50
2019-05-16T19:00:22.583Z,4.43
2019-05-16T19:02:54.034Z,4.50
2019-05-16T19:05:26.509Z,4.17
2019-05-16T19:07:57.614Z,5.10
2019-05-16T19:10:28.960Z,4.17
2019-05-16T19:12:59.956Z,4.40
2019-05-16T19:15:31.309Z,4.27
2019-05-16T19:18:02.630Z,4.20
2019-05-16T19:20:33.994Z,4.20
2019-05-16T19:23:07.392Z,4.57
2019-05-16T19:25:38.291Z,4.13
2019-05-16T19:28:09.453Z,4.23
2019-05-16T19:30:40.809Z,4.43
2019-05-16T19:33:11.905Z,4.43
2019-05-16T19:35:42.852Z,4.43
2019-05-16T19:38:13.914Z,4.03
2019-05-16T19:40:46.970Z,4.07
2019-05-16T19:43:17.967Z,4.00
2019-05-16T19:45:49.374Z,4.00
2019-05-16T19:48:20.840Z,3.80
2019-05-16T19:50:51.908Z,4.37
2019-05-16T19:53:23.416Z,4.70
2019-05-16T19:55:56.587Z,4.53
2019-05-16T19:58:40.940Z,4.13
2019-05-16T20:01:12.140Z,4.57
2019-05-16T20:03:44.014Z,4.40
2019-05-16T20:06:16.850Z,4.37
2019-05-16T20:08:48.173Z,4.37
2019-05-16T20:11:19.601Z,3.97
2019-05-16T20:13:51.766Z,3.63
2019-05-16T20:16:22.798Z,4.47
2019-05-16T20:18:57.502Z,4.00
2019-05-16T20:21:28.537Z,4.50
2019-05-16T20:23:59.844Z,4.10
2019-05-16T20:26:31.080Z,3.93
2019-05-16T20:29:02.375Z,3.43
2019-05-16T20:31:33.403Z,4.23
2019-05-16T20:34:09.067Z,3.77
2019-05-16T20:36:37.855Z,3.83
2019-05-16T20:39:09.755Z,4.27
2019-05-16T20:41:40.767Z,3.80
2019-05-16T20:44:12.036Z,3.83
2019-05-16T20:46:43.545Z,3.03
2019-05-16T20:49:16.655Z,3.73
2019-05-16T20:51:50.155Z,3.80
2019-05-16T20:54:22.364Z,4.03
2019-05-16T20:56:53.498Z,3.70
2019-05-16T20:59:26.573Z,3.73
2019-05-16T21:01:57.605Z,3.80
2019-05-16T21:04:28.720Z,4.47
2019-05-16T21:07:07.026Z,4.30
2019-05-16T21:09:32.612Z,4.33
2019-05-16T21:12:03.706Z,4.23
2019-05-16T21:14:35.241Z,3.67
2019-05-16T21:17:06.803Z,4.37
2019-05-16T21:19:39.239Z,4.10
2019-05-16T21:22:10.523Z,4.20
2019-05-16T21:24:41.597Z,4.37
2019-05-16T21:27:12.603Z,4.30
2019-05-16T21:29:43.715Z,4.40
2019-05-16T21:32:16.254Z,4.53
2019-05-16T21:34:47.287Z,4.63
2019-05-16T21:37:20.472Z,5.23
2019-05-16T21:39:51.734Z,4.60
2019-05-16T21:42:22.834Z,5.00
2019-05-16T21:44:53.863Z,4.70
2019-05-16T21:47:27.543Z,5.03
2019-05-16T21:49:57.917Z,4.97
2019-05-16T21:52:29.277Z,5.03
2019-05-16T21:55:00.266Z,4.80
2019-05-16T21:57:31.260Z,4.90
2019-05-16T22:00:03.449Z,4.43
2019-05-16T22:02:37.159Z,5.40
2019-05-16T22:05:09.230Z,5.20
2019-05-16T22:07:41.730Z,4.90
2019-05-16T22:10:13.384Z,5.50
2019-05-16T22:12:44.538Z,5.57
2019-05-16T22:15:17.152Z,5.03
2019-05-16T22:17:50.130Z,5.20
2019-05-16T22:20:21.210Z,5.30
2019-05-16T22:22:52.500Z,4.67
2019-05-16T22:25:23.526Z,5.17
2019-05-16T22:27:54.433Z,4.90
2019-05-16T22:30:27.291Z,5.37
2019-05-16T22:32:59.835Z,5.10
2019-05-16T22:35:30.920Z,5.13
2019-05-16T22:38:01.846Z,4.70
2019-05-16T22:40:33.317Z,5.07
2019-05-16T22:43:07.197Z,5.00
2019-05-16T22:45:37.518Z,4.80
2019-05-16T22:48:08.658Z,5.10
2019-05-16T22:50:40.949Z,5.00
2019-05-16T22:53:11.945Z,4.80
2019-05-16T22:55:42.877Z,5.33
2019-05-16T22:58:16.294Z,5.07
2019-05-16T23:00:47.228Z,5.17
2019-05-16T23:03:19.042Z,4.93
2019-05-16T23:05:49.978Z,5.17
2019-05-16T23:08:20.882Z,5.13
2019-05-16T23:10:51.894Z,5.20
2019-05-16T23:13:23.296Z,5.17
2019-05-16T23:15:57.013Z,5.33
2019-05-16T23:18:28.463Z,4.97
2019-05-16T23:20:59.748Z,5.47
2019-05-16T23:23:30.999Z,5.20
2019-05-16T23:26:01.938Z,5.43
2019-05-16T23:28:32.984Z,5.80
2019-05-16T23:31:04.346Z,5.50
2019-05-16T23:33:36.555Z,5.37
2019-05-16T23:36:08.771Z,5.07
2019-05-16T23:38:40.039Z,5.50
2019-05-16T23:41:11.314Z,5.50
2019-05-16T23:43:42.233Z,5.50
2019-05-16T23:46:13.163Z,6.03
2019-05-16T23:48:44.105Z,5.60
2019-05-16T23:51:16.919Z,5.70
2019-05-16T23:53:48.522Z,5.57
2019-05-16T23:56:19.480Z,5.70
2019-05-16T23:58:51.573Z,5.90
